• Join FlightAware (Why Join?)
  • Login
  • US Flag 
07:50AM EST


 

Airport Tracker/Info


-or-


 

Live Flight TrackerFlight Track Log ✈ N560JW ✈ 03-May-2013 ✈ KCRG - KPBX

Flight Track Log - Related Links

Times and Time Zones

All times are in EDT time to prevent confusion due to time zone crossing. See the N560JW flight status page for this flight to view local times or setup timezone preferences in your user account.

Time Position Orientation Groundspeed Altitude Reporting Facility
EDT Latitude Longitude Course Direction KTS MPH feet Rate Location/Type
01:30PM 30.3278 -81.5064 194° South 166 191 700  Level Jacksonville Center
01:31PM 30.2822 -81.5192 194° South 267 307 2,900 3,540 Climbing Jacksonville Center
01:32PM 30.2831 -81.6128 271° West 248 285 7,900 3,660 Climbing Jacksonville Center
01:33PM 30.3314 -81.6581 321° Northwest 257 296 10,800 2,880 Climbing Jacksonville Center
01:34PM 30.4008 -81.6883 339° North 262 302 13,800 2,640 Climbing Jacksonville Center
01:35PM 30.4739 -81.6994 353° North 262 302 16,100 2,220 Climbing Jacksonville Center
01:36PM 30.5533 -81.7153 350° North 273 314 18,300 2,220 Climbing Jacksonville Center
01:37PM 30.6369 -81.7289 352° North 288 331 20,600 2,160 Climbing Jacksonville Center
01:38PM 30.7186 -81.7447 351° North 294 338 22,700 1,500 Climbing Jacksonville Center
01:39PM 30.8086 -81.7606 351° North 300 345 23,700 900 Climbing Jacksonville Center
01:40PM 30.9089 -81.7764 352° North 333 383 24,500 1,500 Climbing Jacksonville Center
01:41PM 31.0114 -81.7944 351° North 355 409 26,800 1,980 Climbing Jacksonville Center
01:42PM 31.1014 -81.8128 350° North 349 402 28,500 1,080 Climbing Jacksonville Center
01:43PM 31.1994 -81.8311 351° North 349 402 29,000 1,020 Climbing Jacksonville Center
01:44PM 31.3000 -81.8472 352° North 355 409 30,600 1,740 Climbing Jacksonville Center
01:45PM 31.4086 -81.8653 352° North 355 409 32,500 1,800 Climbing Jacksonville Center
01:46PM 31.4986 -81.8814 351° North 355 409 34,200 1,200 Climbing Jacksonville Center
01:47PM 31.6136 -81.9022 351° North 374 430 35,000 360 Climbing Jacksonville Center
01:48PM 31.7306 -81.9228 353° North 416 479 35,000  Level Jacksonville Center
01:49PM 31.8009 -81.9245 353° North  Level FlightAware Approximate
01:49PM 31.8414 -81.9436 351° North 439 505 35,000  Level Jacksonville Center
01:50PM 31.9772 -81.9692 351° North 450 518 35,000  Level Jacksonville Center
01:51PM 32.1089 -81.9803 356° North 462 532 35,000  Level Jacksonville Center
01:52PM 32.2239 -81.9936 354° North 467 537 35,000  Level Jacksonville Center
01:53PM 32.4292 -82.0111 356° North 454 522 35,000  Level Atlanta Center
01:54PM 32.5567 -82.0231 355° North 459 528 35,000  Level Atlanta Center
01:55PM 32.6864 -82.0397 354° North 465 535 35,000  Level Atlanta Center
01:56PM 32.8161 -82.0614 352° North 465 535 35,000  Level Atlanta Center
01:57PM 32.9378 -82.1083 342° North 460 529 35,000  Level Atlanta Center
01:58PM 33.0656 -82.1328 351° North 460 529 35,000  Level Atlanta Center
01:59PM 33.1953 -82.1422 357° North 460 529 35,000  Level Atlanta Center
02:00PM 33.3269 -82.1542 356° North 460 529 35,000  Level Atlanta Center
02:01PM 33.4544 -82.1639 356° North 465 535 35,000  Level Atlanta Center
02:02PM 33.5881 -82.1786 355° North 465 535 35,000  Level Atlanta Center
02:03PM 33.7197 -82.1881 357° North 465 535 35,000  Level Atlanta Center
02:04PM 33.8389 -82.1981 356° North 471 542 35,000  Level Atlanta Center
02:05PM 33.9728 -82.2128 355° North 476 548 35,000  Level Atlanta Center
02:06PM 34.1044 -82.2275 355° North 476 548 35,000  Level Atlanta Center
02:07PM 34.2381 -82.2397 356° North 476 548 35,000  Level Atlanta Center
02:08PM 34.3656 -82.2522 355° North 476 548 35,000  Level Atlanta Center
02:09PM 34.4994 -82.2644 356° North 471 542 35,000 -240 Level Atlanta Center
02:10PM 34.6289 -82.2767 356° North 471 542 34,600 -1,200 Descending Atlanta Center
02:11PM 34.7564 -82.2917 354° North 466 536 32,700 -1,320 Descending Atlanta Center
02:12PM 34.8881 -82.3042 356° North 461 531 32,000 -360 Descending Atlanta Center
02:13PM 35.0175 -82.3142 356° North 461 531 32,000  Level Atlanta Center
02:14PM 35.1472 -82.3242 356° North 461 531 32,000  Level Atlanta Center
02:15PM 35.2914 -82.3442 354° North 472 543 32,000 -240 Level Atlanta Center
02:16PM 35.4272 -82.3567 356° North 472 543 31,600 -1,020 Descending Atlanta Center
02:17PM 35.5547 -82.3719 354° North 471 542 30,000 -840 Descending Atlanta Center
02:18PM 35.6842 -82.3819 356° North 465 535 30,000 -1,020 Level Atlanta Center
02:19PM 35.8072 -82.3897 357° North 451 519 28,000 -2,220 Descending Atlanta Center
02:20PM 35.9306 -82.4053 354° North 451 519 25,600 -2,700 Descending Atlanta Center
02:21PM 36.0539 -82.4156 356° North 440 506 22,600 -2,040 Descending Atlanta Center
02:22PM 36.1686 -82.4261 356° North 429 494 21,600 -1,860 Descending Atlanta Center
02:23PM 36.2794 -82.4367 356° North 412 474 18,900 -2,460 Descending Atlanta Center
02:24PM 36.3881 -82.4500 354° North 390 449 16,700 -2,040 Descending Atlanta Center
02:25PM 36.4922 -82.4608 355° North 385 443 14,900 -1,980 Descending Atlanta Center
02:26PM 36.5925 -82.4692 356° North 372 428 12,800 -1,440 Descending Atlanta Center
02:28PM 36.7508 -82.4853 355° North 346 398 11,000 -660 Descending Indianapolis Center
02:29PM 36.8619 -82.4950 356° North 344 396 11,000  Level Indianapolis Center
02:30PM 36.9586 -82.5053 355° North 349 402 11,000 -120 Level Indianapolis Center
02:31PM 37.0525 -82.5147 355° North 344 396 10,800 -1,020 Descending Indianapolis Center
02:32PM 37.1414 -82.5433 346° North 333 383 8,900 -1,860 Descending Indianapolis Center
02:33PM 37.2197 -82.5769 341° North 309 356 7,000 -2,100 Descending Indianapolis Center
02:34PM 37.3125 -82.6183 340° North 304 350 4,600 -1,380 Descending Indianapolis Center
02:35PM 37.3761 -82.6464 341° North 265 305 4,200 -540 Descending Indianapolis Center
02:36PM 37.4442 -82.6756 341° North 256 295 3,600 -600 Descending Indianapolis Center